sensor_id;sensor_type;location;lat;lon;timestamp;P1;durP1;ratioP1;P2;durP2;ratioP2
48040;SDS011;33815;48.386;11.738;2022-09-24T00:00:18;10.77;;;8.70;;
48040;SDS011;33815;48.386;11.738;2022-09-24T00:02:43;10.52;;;8.63;;
48040;SDS011;33815;48.386;11.738;2022-09-24T00:05:08;10.43;;;8.20;;
48040;SDS011;33815;48.386;11.738;2022-09-24T00:07:33;11.70;;;7.90;;
48040;SDS011;33815;48.386;11.738;2022-09-24T00:09:59;10.80;;;8.50;;
48040;SDS011;33815;48.386;11.738;2022-09-24T00:12:24;10.07;;;7.87;;
48040;SDS011;33815;48.386;11.738;2022-09-24T00:14:49;9.38;;;7.82;;
48040;SDS011;33815;48.386;11.738;2022-09-24T00:17:15;8.73;;;7.82;;
48040;SDS011;33815;48.386;11.738;2022-09-24T00:19:40;10.77;;;7.93;;
48040;SDS011;33815;48.386;11.738;2022-09-24T00:22:05;9.68;;;8.68;;
48040;SDS011;33815;48.386;11.738;2022-09-24T00:24:31;11.15;;;7.97;;
48040;SDS011;33815;48.386;11.738;2022-09-24T00:27:15;10.35;;;8.85;;
48040;SDS011;33815;48.386;11.738;2022-09-24T00:29:40;10.07;;;8.13;;
48040;SDS011;33815;48.386;11.738;2022-09-24T00:32:06;11.57;;;8.15;;
48040;SDS011;33815;48.386;11.738;2022-09-24T00:34:31;11.27;;;8.73;;
48040;SDS011;33815;48.386;11.738;2022-09-24T00:36:56;16.45;;;9.10;;
48040;SDS011;33815;48.386;11.738;2022-09-24T00:39:23;13.27;;;9.25;;
48040;SDS011;33815;48.386;11.738;2022-09-24T00:41:48;12.88;;;9.07;;
48040;SDS011;33815;48.386;11.738;2022-09-24T00:44:39;9.80;;;8.63;;
48040;SDS011;33815;48.386;11.738;2022-09-24T00:49:47;12.15;;;8.85;;
48040;SDS011;33815;48.386;11.738;2022-09-24T00:52:14;10.85;;;9.13;;
48040;SDS011;33815;48.386;11.738;2022-09-24T00:54:41;12.40;;;9.38;;
48040;SDS011;33815;48.386;11.738;2022-09-24T00:57:08;14.27;;;9.20;;
48040;SDS011;33815;48.386;11.738;2022-09-24T00:59:33;10.50;;;8.48;;
48040;SDS011;33815;48.386;11.738;2022-09-24T01:01:59;12.35;;;8.90;;
48040;SDS011;33815;48.386;11.738;2022-09-24T01:04:25;9.40;;;7.72;;
48040;SDS011;33815;48.386;11.738;2022-09-24T01:06:51;11.20;;;8.65;;
48040;SDS011;33815;48.386;11.738;2022-09-24T01:09:17;12.25;;;9.52;;
48040;SDS011;33815;48.386;11.738;2022-09-24T01:25:30;12.35;;;9.52;;
48040;SDS011;33815;48.386;11.738;2022-09-24T01:28:26;10.07;;;7.85;;
48040;SDS011;33815;48.386;11.738;2022-09-24T01:30:57;9.80;;;8.07;;
48040;SDS011;33815;48.386;11.738;2022-09-24T01:33:29;10.50;;;7.32;;
48040;SDS011;33815;48.386;11.738;2022-09-24T01:35:58;12.55;;;9.02;;
48040;SDS011;33815;48.386;11.738;2022-09-24T01:38:31;12.80;;;9.38;;
48040;SDS011;33815;48.386;11.738;2022-09-24T01:41:02;9.48;;;7.65;;
48040;SDS011;33815;48.386;11.738;2022-09-24T01:43:28;13.05;;;8.57;;
48040;SDS011;33815;48.386;11.738;2022-09-24T01:45:55;9.20;;;7.97;;
48040;SDS011;33815;48.386;11.738;2022-09-24T01:48:23;10.23;;;7.85;;
48040;SDS011;33815;48.386;11.738;2022-09-24T01:53:38;10.52;;;8.82;;
48040;SDS011;33815;48.386;11.738;2022-09-24T01:56:13;7.60;;;6.23;;
48040;SDS011;33815;48.386;11.738;2022-09-24T01:58:47;9.63;;;7.63;;
48040;SDS011;33815;48.386;11.738;2022-09-24T02:01:17;10.57;;;8.70;;
48040;SDS011;33815;48.386;11.738;2022-09-24T02:03:47;10.13;;;7.63;;
48040;SDS011;33815;48.386;11.738;2022-09-24T02:06:24;10.25;;;8.25;;
48040;SDS011;33815;48.386;11.738;2022-09-24T02:08:55;12.10;;;9.77;;
48040;SDS011;33815;48.386;11.738;2022-09-24T02:11:21;11.82;;;9.32;;
48040;SDS011;33815;48.386;11.738;2022-09-24T02:14:05;12.63;;;9.13;;
48040;SDS011;33815;48.386;11.738;2022-09-24T02:16:35;10.75;;;8.20;;
48040;SDS011;33815;48.386;11.738;2022-09-24T02:19:07;9.30;;;8.02;;
48040;SDS011;33815;48.386;11.738;2022-09-24T02:21:35;10.40;;;8.52;;
48040;SDS011;33815;48.386;11.738;2022-09-24T02:24:07;9.98;;;8.35;;
48040;SDS011;33815;48.386;11.738;2022-09-24T02:26:38;11.60;;;9.63;;
48040;SDS011;33815;48.386;11.738;2022-09-24T02:29:03;11.13;;;8.73;;
48040;SDS011;33815;48.386;11.738;2022-09-24T02:31:30;13.48;;;8.68;;
48040;SDS011;33815;48.386;11.738;2022-09-24T02:34:00;13.10;;;9.82;;
48040;SDS011;33815;48.386;11.738;2022-09-24T02:36:50;11.27;;;8.48;;
48040;SDS011;33815;48.386;11.738;2022-09-24T02:39:18;12.85;;;8.40;;
48040;SDS011;33815;48.386;11.738;2022-09-24T02:41:44;13.60;;;9.07;;
48040;SDS011;33815;48.386;11.738;2022-09-24T02:44:12;10.93;;;8.13;;
48040;SDS011;33815;48.386;11.738;2022-09-24T02:46:41;10.48;;;8.27;;
48040;SDS011;33815;48.386;11.738;2022-09-24T02:49:07;13.27;;;8.23;;
48040;SDS011;33815;48.386;11.738;2022-09-24T02:51:33;13.55;;;8.40;;
48040;SDS011;33815;48.386;11.738;2022-09-24T02:53:59;10.98;;;8.48;;
48040;SDS011;33815;48.386;11.738;2022-09-24T02:56:25;12.85;;;8.70;;
48040;SDS011;33815;48.386;11.738;2022-09-24T02:58:51;10.00;;;8.73;;
48040;SDS011;33815;48.386;11.738;2022-09-24T03:01:17;10.20;;;8.13;;
48040;SDS011;33815;48.386;11.738;2022-09-24T03:03:43;12.73;;;7.82;;
48040;SDS011;33815;48.386;11.738;2022-09-24T03:06:08;9.50;;;8.25;;
48040;SDS011;33815;48.386;11.738;2022-09-24T03:08:36;13.75;;;9.10;;
48040;SDS011;33815;48.386;11.738;2022-09-24T03:11:01;9.30;;;7.82;;
48040;SDS011;33815;48.386;11.738;2022-09-24T03:13:26;8.93;;;7.40;;
48040;SDS011;33815;48.386;11.738;2022-09-24T03:15:51;9.60;;;7.93;;
48040;SDS011;33815;48.386;11.738;2022-09-24T03:18:17;12.60;;;9.15;;
48040;SDS011;33815;48.386;11.738;2022-09-24T03:20:42;10.32;;;7.93;;
48040;SDS011;33815;48.386;11.738;2022-09-24T03:23:07;9.70;;;7.75;;
48040;SDS011;33815;48.386;11.738;2022-09-24T03:25:32;10.83;;;8.50;;
48040;SDS011;33815;48.386;11.738;2022-09-24T03:27:58;10.75;;;8.18;;
48040;SDS011;33815;48.386;11.738;2022-09-24T03:30:23;11.50;;;9.00;;
48040;SDS011;33815;48.386;11.738;2022-09-24T03:33:07;11.43;;;8.38;;
48040;SDS011;33815;48.386;11.738;2022-09-24T03:35:32;11.43;;;8.57;;
48040;SDS011;33815;48.386;11.738;2022-09-24T03:37:57;9.32;;;7.55;;
48040;SDS011;33815;48.386;11.738;2022-09-24T03:40:22;11.10;;;8.15;;
48040;SDS011;33815;48.386;11.738;2022-09-24T03:42:49;11.60;;;8.27;;
48040;SDS011;33815;48.386;11.738;2022-09-24T03:45:14;10.35;;;8.23;;
48040;SDS011;33815;48.386;11.738;2022-09-24T03:47:40;11.75;;;8.60;;
48040;SDS011;33815;48.386;11.738;2022-09-24T03:50:06;10.32;;;8.15;;
48040;SDS011;33815;48.386;11.738;2022-09-24T03:52:35;12.93;;;8.75;;
48040;SDS011;33815;48.386;11.738;2022-09-24T03:55:00;13.07;;;9.07;;
48040;SDS011;33815;48.386;11.738;2022-09-24T03:57:26;11.07;;;8.52;;
48040;SDS011;33815;48.386;11.738;2022-09-24T03:59:51;11.23;;;8.23;;
48040;SDS011;33815;48.386;11.738;2022-09-24T04:02:17;8.40;;;7.55;;
48040;SDS011;33815;48.386;11.738;2022-09-24T04:04:43;9.82;;;8.82;;
48040;SDS011;33815;48.386;11.738;2022-09-24T04:07:08;12.20;;;8.18;;
48040;SDS011;33815;48.386;11.738;2022-09-24T04:09:33;11.95;;;8.90;;
48040;SDS011;33815;48.386;11.738;2022-09-24T04:11:59;11.32;;;8.90;;
48040;SDS011;33815;48.386;11.738;2022-09-24T04:14:24;10.77;;;8.70;;
48040;SDS011;33815;48.386;11.738;2022-09-24T04:16:49;12.43;;;9.27;;
48040;SDS011;33815;48.386;11.738;2022-09-24T04:19:15;12.18;;;9.13;;
48040;SDS011;33815;48.386;11.738;2022-09-24T04:21:41;10.20;;;8.80;;
48040;SDS011;33815;48.386;11.738;2022-09-24T04:24:07;11.70;;;7.50;;
48040;SDS011;33815;48.386;11.738;2022-09-24T04:26:32;13.32;;;8.88;;
48040;SDS011;33815;48.386;11.738;2022-09-24T04:28:58;11.52;;;7.90;;
48040;SDS011;33815;48.386;11.738;2022-09-24T04:31:24;11.17;;;7.80;;
48040;SDS011;33815;48.386;11.738;2022-09-24T04:33:51;11.40;;;7.90;;
48040;SDS011;33815;48.386;11.738;2022-09-24T04:36:17;9.75;;;8.52;;
48040;SDS011;33815;48.386;11.738;2022-09-24T04:38:42;12.07;;;9.18;;
48040;SDS011;33815;48.386;11.738;2022-09-24T04:41:11;10.95;;;9.00;;
48040;SDS011;33815;48.386;11.738;2022-09-24T04:43:36;10.23;;;8.20;;
48040;SDS011;33815;48.386;11.738;2022-09-24T04:46:02;11.82;;;7.95;;
48040;SDS011;33815;48.386;11.738;2022-09-24T04:48:28;11.00;;;7.63;;
48040;SDS011;33815;48.386;11.738;2022-09-24T04:50:54;9.82;;;7.40;;
48040;SDS011;33815;48.386;11.738;2022-09-24T04:53:19;11.48;;;8.50;;
48040;SDS011;33815;48.386;11.738;2022-09-24T04:55:46;9.07;;;7.82;;
48040;SDS011;33815;48.386;11.738;2022-09-24T04:58:11;8.73;;;7.75;;
48040;SDS011;33815;48.386;11.738;2022-09-24T05:00:36;8.65;;;7.32;;
48040;SDS011;33815;48.386;11.738;2022-09-24T05:03:02;11.13;;;7.25;;
48040;SDS011;33815;48.386;11.738;2022-09-24T05:05:27;13.02;;;8.05;;
48040;SDS011;33815;48.386;11.738;2022-09-24T05:07:53;10.55;;;8.10;;
48040;SDS011;33815;48.386;11.738;2022-09-24T05:10:20;11.77;;;7.90;;
48040;SDS011;33815;48.386;11.738;2022-09-24T05:12:46;10.50;;;8.00;;
48040;SDS011;33815;48.386;11.738;2022-09-24T05:15:11;10.33;;;7.73;;
48040;SDS011;33815;48.386;11.738;2022-09-24T05:17:37;8.10;;;7.25;;
48040;SDS011;33815;48.386;11.738;2022-09-24T05:20:03;10.65;;;8.23;;
48040;SDS011;33815;48.386;11.738;2022-09-24T05:22:29;9.73;;;7.65;;
48040;SDS011;33815;48.386;11.738;2022-09-24T05:24:55;12.27;;;8.75;;
48040;SDS011;33815;48.386;11.738;2022-09-24T05:27:20;10.18;;;8.77;;
48040;SDS011;33815;48.386;11.738;2022-09-24T05:29:47;11.65;;;8.82;;
48040;SDS011;33815;48.386;11.738;2022-09-24T05:32:13;12.07;;;7.78;;
48040;SDS011;33815;48.386;11.738;2022-09-24T05:34:41;13.15;;;9.35;;
48040;SDS011;33815;48.386;11.738;2022-09-24T05:37:07;10.88;;;8.38;;
48040;SDS011;33815;48.386;11.738;2022-09-24T05:39:33;10.70;;;7.97;;
48040;SDS011;33815;48.386;11.738;2022-09-24T05:41:58;11.32;;;8.32;;
48040;SDS011;33815;48.386;11.738;2022-09-24T05:44:24;10.38;;;8.00;;
48040;SDS011;33815;48.386;11.738;2022-09-24T05:46:50;11.57;;;8.00;;
48040;SDS011;33815;48.386;11.738;2022-09-24T05:49:16;11.40;;;8.90;;
48040;SDS011;33815;48.386;11.738;2022-09-24T05:51:41;14.35;;;8.77;;
48040;SDS011;33815;48.386;11.738;2022-09-24T05:54:07;11.85;;;8.65;;
48040;SDS011;33815;48.386;11.738;2022-09-24T05:56:32;10.48;;;8.60;;
48040;SDS011;33815;48.386;11.738;2022-09-24T05:58:58;14.25;;;9.02;;
48040;SDS011;33815;48.386;11.738;2022-09-24T06:01:24;11.15;;;9.25;;
48040;SDS011;33815;48.386;11.738;2022-09-24T06:03:53;12.32;;;9.13;;
48040;SDS011;33815;48.386;11.738;2022-09-24T06:06:20;10.90;;;8.55;;
48040;SDS011;33815;48.386;11.738;2022-09-24T06:08:45;10.33;;;7.97;;
48040;SDS011;33815;48.386;11.738;2022-09-24T06:11:10;10.07;;;7.50;;
48040;SDS011;33815;48.386;11.738;2022-09-24T06:13:37;11.27;;;8.27;;
48040;SDS011;33815;48.386;11.738;2022-09-24T06:16:04;11.18;;;8.90;;
48040;SDS011;33815;48.386;11.738;2022-09-24T06:18:38;12.82;;;9.05;;
48040;SDS011;33815;48.386;11.738;2022-09-24T06:21:06;9.07;;;7.78;;
48040;SDS011;33815;48.386;11.738;2022-09-24T06:23:34;13.20;;;8.40;;
48040;SDS011;33815;48.386;11.738;2022-09-24T06:26:00;10.70;;;8.02;;
48040;SDS011;33815;48.386;11.738;2022-09-24T06:28:25;11.27;;;7.38;;
48040;SDS011;33815;48.386;11.738;2022-09-24T06:30:50;10.55;;;8.60;;
48040;SDS011;33815;48.386;11.738;2022-09-24T06:33:16;9.65;;;7.63;;
48040;SDS011;33815;48.386;11.738;2022-09-24T06:35:42;10.63;;;8.00;;
48040;SDS011;33815;48.386;11.738;2022-09-24T06:38:10;10.13;;;7.13;;
48040;SDS011;33815;48.386;11.738;2022-09-24T06:40:36;10.40;;;7.40;;
48040;SDS011;33815;48.386;11.738;2022-09-24T06:43:03;8.52;;;7.53;;
48040;SDS011;33815;48.386;11.738;2022-09-24T06:45:29;10.73;;;8.70;;
48040;SDS011;33815;48.386;11.738;2022-09-24T06:47:55;8.88;;;6.78;;
48040;SDS011;33815;48.386;11.738;2022-09-24T06:50:22;9.20;;;7.45;;
48040;SDS011;33815;48.386;11.738;2022-09-24T06:52:49;9.63;;;7.38;;
48040;SDS011;33815;48.386;11.738;2022-09-24T06:55:15;9.85;;;7.75;;
48040;SDS011;33815;48.386;11.738;2022-09-24T06:57:41;12.13;;;7.88;;
48040;SDS011;33815;48.386;11.738;2022-09-24T07:00:07;9.35;;;7.53;;
48040;SDS011;33815;48.386;11.738;2022-09-24T07:02:32;8.77;;;6.70;;
48040;SDS011;33815;48.386;11.738;2022-09-24T07:04:57;9.37;;;7.23;;
48040;SDS011;33815;48.386;11.738;2022-09-24T07:07:23;9.27;;;7.00;;
48040;SDS011;33815;48.386;11.738;2022-09-24T07:09:54;9.98;;;7.03;;
48040;SDS011;33815;48.386;11.738;2022-09-24T07:12:20;7.75;;;6.90;;
48040;SDS011;33815;48.386;11.738;2022-09-24T07:14:46;7.97;;;6.72;;
48040;SDS011;33815;48.386;11.738;2022-09-24T07:17:11;7.87;;;6.43;;
48040;SDS011;33815;48.386;11.738;2022-09-24T07:19:36;7.50;;;6.22;;
48040;SDS011;33815;48.386;11.738;2022-09-24T07:22:02;9.75;;;7.10;;
48040;SDS011;33815;48.386;11.738;2022-09-24T07:24:27;7.13;;;5.97;;
48040;SDS011;33815;48.386;11.738;2022-09-24T07:26:53;8.20;;;6.80;;
48040;SDS011;33815;48.386;11.738;2022-09-24T07:29:18;6.65;;;6.05;;
48040;SDS011;33815;48.386;11.738;2022-09-24T07:31:43;7.90;;;7.05;;
48040;SDS011;33815;48.386;11.738;2022-09-24T07:34:09;8.40;;;7.53;;
48040;SDS011;33815;48.386;11.738;2022-09-24T07:36:34;7.57;;;6.47;;
48040;SDS011;33815;48.386;11.738;2022-09-24T07:38:59;7.88;;;6.72;;
48040;SDS011;33815;48.386;11.738;2022-09-24T07:41:25;8.18;;;7.28;;
48040;SDS011;33815;48.386;11.738;2022-09-24T07:43:50;10.45;;;7.70;;
48040;SDS011;33815;48.386;11.738;2022-09-24T07:46:16;9.75;;;7.22;;
48040;SDS011;33815;48.386;11.738;2022-09-24T07:48:41;11.27;;;7.28;;
48040;SDS011;33815;48.386;11.738;2022-09-24T07:51:10;8.23;;;7.20;;
48040;SDS011;33815;48.386;11.738;2022-09-24T07:53:35;9.32;;;7.70;;
48040;SDS011;33815;48.386;11.738;2022-09-24T07:56:02;9.50;;;7.68;;
48040;SDS011;33815;48.386;11.738;2022-09-24T07:58:28;9.52;;;8.20;;
48040;SDS011;33815;48.386;11.738;2022-09-24T08:00:56;9.55;;;7.95;;
48040;SDS011;33815;48.386;11.738;2022-09-24T08:03:22;9.60;;;8.60;;
48040;SDS011;33815;48.386;11.738;2022-09-24T08:05:47;9.87;;;8.60;;
48040;SDS011;33815;48.386;11.738;2022-09-24T08:08:13;11.73;;;9.20;;
48040;SDS011;33815;48.386;11.738;2022-09-24T08:10:39;12.65;;;7.75;;
48040;SDS011;33815;48.386;11.738;2022-09-24T08:13:06;9.75;;;8.05;;
48040;SDS011;33815;48.386;11.738;2022-09-24T08:15:31;10.75;;;8.82;;
48040;SDS011;33815;48.386;11.738;2022-09-24T08:18:00;14.23;;;12.15;;
48040;SDS011;33815;48.386;11.738;2022-09-24T08:20:27;12.73;;;9.93;;
48040;SDS011;33815;48.386;11.738;2022-09-24T08:22:53;13.20;;;9.77;;
48040;SDS011;33815;48.386;11.738;2022-09-24T08:25:18;13.45;;;8.60;;
48040;SDS011;33815;48.386;11.738;2022-09-24T08:27:43;12.85;;;9.50;;
48040;SDS011;33815;48.386;11.738;2022-09-24T08:30:09;8.87;;;7.97;;
48040;SDS011;33815;48.386;11.738;2022-09-24T08:32:35;8.25;;;7.22;;
48040;SDS011;33815;48.386;11.738;2022-09-24T08:35:00;8.85;;;7.95;;
48040;SDS011;33815;48.386;11.738;2022-09-24T08:37:26;7.90;;;6.57;;
48040;SDS011;33815;48.386;11.738;2022-09-24T08:39:52;11.50;;;8.30;;
48040;SDS011;33815;48.386;11.738;2022-09-24T08:45:04;8.63;;;7.20;;
48040;SDS011;33815;48.386;11.738;2022-09-24T08:50:26;9.30;;;8.40;;
48040;SDS011;33815;48.386;11.738;2022-09-24T08:52:56;8.32;;;7.45;;
48040;SDS011;33815;48.386;11.738;2022-09-24T08:55:34;9.48;;;8.35;;
48040;SDS011;33815;48.386;11.738;2022-09-24T09:00:39;14.10;;;12.60;;
48040;SDS011;33815;48.386;11.738;2022-09-24T09:03:20;9.52;;;8.52;;
48040;SDS011;33815;48.386;11.738;2022-09-24T09:09:02;14.50;;;6.20;;
48040;SDS011;33815;48.386;11.738;2022-09-24T09:11:35;7.85;;;7.05;;
48040;SDS011;33815;48.386;11.738;2022-09-24T09:17:28;9.57;;;8.60;;
48040;SDS011;33815;48.386;11.738;2022-09-24T09:19:59;8.30;;;7.40;;
48040;SDS011;33815;48.386;11.738;2022-09-24T09:22:30;10.38;;;7.35;;
48040;SDS011;33815;48.386;11.738;2022-09-24T09:25:03;7.75;;;6.95;;
48040;SDS011;33815;48.386;11.738;2022-09-24T09:27:40;5.82;;;5.18;;
48040;SDS011;33815;48.386;11.738;2022-09-24T09:30:05;9.02;;;6.28;;
48040;SDS011;33815;48.386;11.738;2022-09-24T09:40:40;7.10;;;5.88;;
48040;SDS011;33815;48.386;11.738;2022-09-24T09:43:10;6.57;;;5.75;;
48040;SDS011;33815;48.386;11.738;2022-09-24T09:48:21;6.40;;;5.80;;
48040;SDS011;33815;48.386;11.738;2022-09-24T09:50:51;7.35;;;6.00;;
48040;SDS011;33815;48.386;11.738;2022-09-24T09:53:23;7.05;;;5.93;;
48040;SDS011;33815;48.386;11.738;2022-09-24T09:55:53;6.93;;;6.10;;
48040;SDS011;33815;48.386;11.738;2022-09-24T09:58:22;7.25;;;5.63;;
48040;SDS011;33815;48.386;11.738;2022-09-24T10:00:49;5.53;;;5.03;;
48040;SDS011;33815;48.386;11.738;2022-09-24T10:03:20;6.03;;;5.40;;
48040;SDS011;33815;48.386;11.738;2022-09-24T10:05:51;7.13;;;5.22;;
48040;SDS011;33815;48.386;11.738;2022-09-24T10:08:22;7.93;;;5.68;;
48040;SDS011;33815;48.386;11.738;2022-09-24T10:10:54;6.10;;;5.30;;
48040;SDS011;33815;48.386;11.738;2022-09-24T10:13:22;9.27;;;5.35;;
48040;SDS011;33815;48.386;11.738;2022-09-24T10:15:55;6.25;;;5.40;;
48040;SDS011;33815;48.386;11.738;2022-09-24T10:18:26;6.18;;;5.28;;
48040;SDS011;33815;48.386;11.738;2022-09-24T10:21:04;7.25;;;5.28;;
48040;SDS011;33815;48.386;11.738;2022-09-24T10:23:43;6.13;;;5.53;;
48040;SDS011;33815;48.386;11.738;2022-09-24T10:26:13;7.65;;;5.60;;
48040;SDS011;33815;48.386;11.738;2022-09-24T10:28:48;7.30;;;5.40;;
48040;SDS011;33815;48.386;11.738;2022-09-24T10:31:34;6.63;;;4.85;;
48040;SDS011;33815;48.386;11.738;2022-09-24T10:34:03;5.60;;;5.05;;
48040;SDS011;33815;48.386;11.738;2022-09-24T10:36:48;7.00;;;5.40;;
48040;SDS011;33815;48.386;11.738;2022-09-24T10:39:15;5.70;;;5.13;;
48040;SDS011;33815;48.386;11.738;2022-09-24T10:41:47;7.55;;;5.20;;
48040;SDS011;33815;48.386;11.738;2022-09-24T10:44:17;7.47;;;5.10;;
48040;SDS011;33815;48.386;11.738;2022-09-24T10:54:57;8.68;;;6.47;;
48040;SDS011;33815;48.386;11.738;2022-09-24T10:58:03;6.95;;;6.25;;
48040;SDS011;33815;48.386;11.738;2022-09-24T11:00:49;7.72;;;6.63;;
48040;SDS011;33815;48.386;11.738;2022-09-24T11:03:31;11.07;;;8.20;;
48040;SDS011;33815;48.386;11.738;2022-09-24T11:08:59;7.03;;;6.32;;
48040;SDS011;33815;48.386;11.738;2022-09-24T11:11:36;7.15;;;6.45;;
48040;SDS011;33815;48.386;11.738;2022-09-24T11:16:54;7.22;;;6.10;;
48040;SDS011;33815;48.386;11.738;2022-09-24T11:19:25;8.07;;;7.15;;
48040;SDS011;33815;48.386;11.738;2022-09-24T11:22:14;7.35;;;6.60;;
48040;SDS011;33815;48.386;11.738;2022-09-24T11:25:31;7.65;;;6.57;;
48040;SDS011;33815;48.386;11.738;2022-09-24T11:28:00;8.20;;;6.38;;
48040;SDS011;33815;48.386;11.738;2022-09-24T11:41:48;8.75;;;7.28;;
48040;SDS011;33815;48.386;11.738;2022-09-24T11:47:23;8.52;;;6.95;;
48040;SDS011;33815;48.386;11.738;2022-09-24T11:52:44;8.55;;;7.15;;
48040;SDS011;33815;48.386;11.738;2022-09-24T11:55:17;10.37;;;8.43;;
48040;SDS011;33815;48.386;11.738;2022-09-24T12:00:52;8.55;;;6.80;;
48040;SDS011;33815;48.386;11.738;2022-09-24T12:03:43;9.75;;;7.20;;
48040;SDS011;33815;48.386;11.738;2022-09-24T12:06:18;9.25;;;7.32;;
48040;SDS011;33815;48.386;11.738;2022-09-24T12:11:38;8.23;;;7.43;;
48040;SDS011;33815;48.386;11.738;2022-09-24T12:16:41;7.82;;;6.28;;
48040;SDS011;33815;48.386;11.738;2022-09-24T12:19:25;10.60;;;7.13;;
48040;SDS011;33815;48.386;11.738;2022-09-24T12:21:56;6.82;;;5.32;;
48040;SDS011;33815;48.386;11.738;2022-09-24T12:26:57;9.38;;;6.38;;
48040;SDS011;33815;48.386;11.738;2022-09-24T12:32:57;7.10;;;6.07;;
48040;SDS011;33815;48.386;11.738;2022-09-24T12:35:36;8.70;;;7.18;;
48040;SDS011;33815;48.386;11.738;2022-09-24T12:38:13;8.38;;;6.75;;
48040;SDS011;33815;48.386;11.738;2022-09-24T12:40:57;8.88;;;7.75;;
48040;SDS011;33815;48.386;11.738;2022-09-24T12:43:33;11.00;;;7.28;;
48040;SDS011;33815;48.386;11.738;2022-09-24T12:46:05;13.95;;;10.00;;
48040;SDS011;33815;48.386;11.738;2022-09-24T12:48:41;30.48;;;16.83;;
48040;SDS011;33815;48.386;11.738;2022-09-24T12:51:08;39.15;;;20.10;;
48040;SDS011;33815;48.386;11.738;2022-09-24T12:53:36;9.45;;;7.88;;
48040;SDS011;33815;48.386;11.738;2022-09-24T12:56:04;11.90;;;7.60;;
48040;SDS011;33815;48.386;11.738;2022-09-24T12:58:38;10.20;;;7.40;;
48040;SDS011;33815;48.386;11.738;2022-09-24T13:01:12;11.13;;;8.30;;
48040;SDS011;33815;48.386;11.738;2022-09-24T13:12:01;8.68;;;7.78;;
48040;SDS011;33815;48.386;11.738;2022-09-24T13:14:39;11.65;;;9.18;;
48040;SDS011;33815;48.386;11.738;2022-09-24T13:17:06;10.30;;;8.45;;
48040;SDS011;33815;48.386;11.738;2022-09-24T13:19:36;12.95;;;8.85;;
48040;SDS011;33815;48.386;11.738;2022-09-24T13:22:04;9.43;;;8.23;;
48040;SDS011;33815;48.386;11.738;2022-09-24T13:24:44;9.45;;;8.18;;
48040;SDS011;33815;48.386;11.738;2022-09-24T13:27:19;8.93;;;7.65;;
48040;SDS011;33815;48.386;11.738;2022-09-24T13:29:51;10.43;;;7.80;;
48040;SDS011;33815;48.386;11.738;2022-09-24T13:32:27;8.50;;;6.40;;
48040;SDS011;33815;48.386;11.738;2022-09-24T13:34:53;8.00;;;6.32;;
48040;SDS011;33815;48.386;11.738;2022-09-24T13:37:20;7.35;;;6.65;;
48040;SDS011;33815;48.386;11.738;2022-09-24T13:40:03;8.05;;;6.72;;
48040;SDS011;33815;48.386;11.738;2022-09-24T13:42:46;7.55;;;5.93;;
48040;SDS011;33815;48.386;11.738;2022-09-24T13:45:19;11.23;;;6.55;;
48040;SDS011;33815;48.386;11.738;2022-09-24T13:47:47;8.95;;;6.35;;
48040;SDS011;33815;48.386;11.738;2022-09-24T13:53:02;6.45;;;5.80;;
48040;SDS011;33815;48.386;11.738;2022-09-24T13:55:38;6.43;;;5.75;;
48040;SDS011;33815;48.386;11.738;2022-09-24T14:01:01;8.02;;;6.05;;
48040;SDS011;33815;48.386;11.738;2022-09-24T14:03:29;6.80;;;6.13;;
48040;SDS011;33815;48.386;11.738;2022-09-24T14:05:59;10.02;;;6.57;;
48040;SDS011;33815;48.386;11.738;2022-09-24T14:08:26;9.35;;;6.07;;
48040;SDS011;33815;48.386;11.738;2022-09-24T14:11:12;10.32;;;7.13;;
48040;SDS011;33815;48.386;11.738;2022-09-24T14:13:43;12.55;;;6.03;;
48040;SDS011;33815;48.386;11.738;2022-09-24T14:18:41;8.68;;;6.75;;
48040;SDS011;33815;48.386;11.738;2022-09-24T14:23:44;8.18;;;6.55;;
48040;SDS011;33815;48.386;11.738;2022-09-24T14:26:17;8.30;;;7.15;;
48040;SDS011;33815;48.386;11.738;2022-09-24T14:28:58;7.60;;;6.18;;
48040;SDS011;33815;48.386;11.738;2022-09-24T14:31:27;8.07;;;6.65;;
48040;SDS011;33815;48.386;11.738;2022-09-24T14:33:53;8.75;;;7.80;;
48040;SDS011;33815;48.386;11.738;2022-09-24T14:36:19;9.15;;;6.45;;
48040;SDS011;33815;48.386;11.738;2022-09-24T14:38:54;8.82;;;6.65;;
48040;SDS011;33815;48.386;11.738;2022-09-24T14:41:24;8.13;;;6.72;;
48040;SDS011;33815;48.386;11.738;2022-09-24T14:44:06;8.70;;;7.10;;
48040;SDS011;33815;48.386;11.738;2022-09-24T14:46:52;6.72;;;5.75;;
48040;SDS011;33815;48.386;11.738;2022-09-24T14:49:30;9.10;;;6.68;;
48040;SDS011;33815;48.386;11.738;2022-09-24T14:52:20;11.65;;;6.57;;
48040;SDS011;33815;48.386;11.738;2022-09-24T14:54:59;8.27;;;5.95;;
48040;SDS011;33815;48.386;11.738;2022-09-24T14:57:34;8.93;;;6.68;;
48040;SDS011;33815;48.386;11.738;2022-09-24T15:00:01;9.40;;;6.93;;
48040;SDS011;33815;48.386;11.738;2022-09-24T15:04:53;12.10;;;6.60;;
48040;SDS011;33815;48.386;11.738;2022-09-24T15:07:23;8.38;;;6.20;;
48040;SDS011;33815;48.386;11.738;2022-09-24T15:09:50;6.63;;;5.90;;
48040;SDS011;33815;48.386;11.738;2022-09-24T15:12:23;7.82;;;6.47;;
48040;SDS011;33815;48.386;11.738;2022-09-24T15:17:28;9.27;;;6.50;;
48040;SDS011;33815;48.386;11.738;2022-09-24T15:19:55;8.57;;;6.75;;
48040;SDS011;33815;48.386;11.738;2022-09-24T15:22:22;7.45;;;6.20;;
48040;SDS011;33815;48.386;11.738;2022-09-24T15:24:50;8.40;;;6.65;;
48040;SDS011;33815;48.386;11.738;2022-09-24T15:29:48;7.40;;;5.93;;
48040;SDS011;33815;48.386;11.738;2022-09-24T15:32:15;9.50;;;6.38;;
48040;SDS011;33815;48.386;11.738;2022-09-24T15:34:42;10.00;;;6.90;;
48040;SDS011;33815;48.386;11.738;2022-09-24T15:37:09;8.32;;;6.13;;
48040;SDS011;33815;48.386;11.738;2022-09-24T15:39:36;8.93;;;7.10;;
48040;SDS011;33815;48.386;11.738;2022-09-24T15:42:02;8.77;;;6.25;;
48040;SDS011;33815;48.386;11.738;2022-09-24T15:44:28;7.57;;;6.22;;
48040;SDS011;33815;48.386;11.738;2022-09-24T15:46:53;9.00;;;6.75;;
48040;SDS011;33815;48.386;11.738;2022-09-24T15:49:19;8.90;;;6.75;;
48040;SDS011;33815;48.386;11.738;2022-09-24T15:51:55;6.68;;;5.97;;
48040;SDS011;33815;48.386;11.738;2022-09-24T15:54:25;7.53;;;5.25;;
48040;SDS011;33815;48.386;11.738;2022-09-24T15:56:50;6.87;;;4.63;;
48040;SDS011;33815;48.386;11.738;2022-09-24T15:59:16;6.97;;;6.00;;
48040;SDS011;33815;48.386;11.738;2022-09-24T16:01:44;8.52;;;6.32;;
48040;SDS011;33815;48.386;11.738;2022-09-24T16:04:10;7.40;;;6.18;;
48040;SDS011;33815;48.386;11.738;2022-09-24T16:06:36;11.85;;;7.13;;
48040;SDS011;33815;48.386;11.738;2022-09-24T16:09:02;10.13;;;7.60;;
48040;SDS011;33815;48.386;11.738;2022-09-24T16:11:28;10.75;;;8.57;;
48040;SDS011;33815;48.386;11.738;2022-09-24T16:13:53;9.95;;;7.82;;
48040;SDS011;33815;48.386;11.738;2022-09-24T16:16:18;8.73;;;7.78;;
48040;SDS011;33815;48.386;11.738;2022-09-24T16:18:44;9.27;;;7.63;;
48040;SDS011;33815;48.386;11.738;2022-09-24T16:21:09;9.50;;;7.72;;
48040;SDS011;33815;48.386;11.738;2022-09-24T16:23:34;10.07;;;8.73;;
48040;SDS011;33815;48.386;11.738;2022-09-24T16:25:59;11.38;;;8.82;;
48040;SDS011;33815;48.386;11.738;2022-09-24T16:28:26;9.85;;;8.68;;
48040;SDS011;33815;48.386;11.738;2022-09-24T16:30:52;10.35;;;9.27;;
48040;SDS011;33815;48.386;11.738;2022-09-24T16:33:17;11.23;;;9.50;;
48040;SDS011;33815;48.386;11.738;2022-09-24T16:35:43;12.18;;;9.88;;